createdAt,value
2024-05-09T00:00:36.197Z,17.92
2024-05-09T00:03:07.888Z,19.58
2024-05-09T00:05:35.323Z,20.25
2024-05-09T00:08:02.532Z,19.02
2024-05-09T00:10:35.785Z,20.52
2024-05-09T00:13:05.369Z,19.30
2024-05-09T00:15:33.185Z,18.67
2024-05-09T00:17:59.963Z,20.08
2024-05-09T00:20:35.088Z,18.13
2024-05-09T00:23:07.038Z,16.30
2024-05-09T00:25:34.097Z,15.98
2024-05-09T00:28:00.805Z,19.27
2024-05-09T00:30:33.685Z,20.42
2024-05-09T00:33:03.833Z,18.33
2024-05-09T00:35:31.016Z,17.88
2024-05-09T00:37:57.877Z,21.80
2024-05-09T00:40:35.052Z,17.25
2024-05-09T00:43:06.125Z,21.92
2024-05-09T00:45:34.143Z,21.38
2024-05-09T00:48:02.989Z,18.13
2024-05-09T00:50:35.947Z,19.67
2024-05-09T00:53:05.915Z,19.42
2024-05-09T00:55:33.775Z,19.80
2024-05-09T00:58:01.016Z,18.83
2024-05-09T01:00:35.667Z,22.30
2024-05-09T01:03:06.514Z,22.05
2024-05-09T01:05:34.482Z,23.25
2024-05-09T01:08:01.778Z,21.02
2024-05-09T01:10:34.121Z,21.17
2024-05-09T01:13:06.827Z,21.55
2024-05-09T01:15:34.661Z,21.00
2024-05-09T01:18:06.880Z,22.90
2024-05-09T01:20:41.059Z,22.73
2024-05-09T01:23:11.010Z,24.20
2024-05-09T01:25:37.943Z,23.67
2024-05-09T01:28:04.867Z,24.88
2024-05-09T01:30:35.122Z,23.17
2024-05-09T01:33:05.661Z,21.92
2024-05-09T01:35:33.607Z,22.52
2024-05-09T01:38:00.457Z,18.08
2024-05-09T01:40:36.321Z,21.60
2024-05-09T01:43:05.940Z,20.95
2024-05-09T01:45:32.497Z,19.77
2024-05-09T01:47:59.317Z,19.13
2024-05-09T01:50:37.140Z,16.40
2024-05-09T01:53:07.760Z,14.52
2024-05-09T01:55:34.435Z,15.77
2024-05-09T01:58:01.022Z,13.52
2024-05-09T02:00:37.332Z,13.27
2024-05-09T02:03:11.559Z,14.75
2024-05-09T02:05:41.230Z,14.98
2024-05-09T02:08:12.970Z,11.55
2024-05-09T02:10:39.596Z,15.05
2024-05-09T02:13:07.710Z,19.35
2024-05-09T02:15:34.278Z,13.70
2024-05-09T02:18:00.963Z,13.15
2024-05-09T02:20:34.237Z,12.85
2024-05-09T02:23:05.017Z,12.65
2024-05-09T02:25:32.669Z,15.05
2024-05-09T02:27:59.630Z,14.27
2024-05-09T02:30:36.105Z,14.00
2024-05-09T02:33:07.667Z,15.48
2024-05-09T02:35:34.795Z,12.23
2024-05-09T02:38:01.780Z,12.68
2024-05-09T02:40:36.022Z,11.25
2024-05-09T02:43:05.666Z,13.98
2024-05-09T02:45:32.626Z,11.40
2024-05-09T02:47:59.469Z,11.77
2024-05-09T02:50:33.966Z,11.85
2024-05-09T02:53:05.192Z,11.90
2024-05-09T02:55:32.106Z,11.63
2024-05-09T02:57:58.748Z,12.25
2024-05-09T03:00:34.457Z,15.18
2024-05-09T03:03:07.046Z,11.65
2024-05-09T03:05:34.281Z,11.27
2024-05-09T03:08:01.048Z,11.38
2024-05-09T03:10:29.239Z,12.18
2024-05-09T03:13:06.196Z,11.38
2024-05-09T03:15:33.000Z,14.18
2024-05-09T03:18:00.912Z,12.65
2024-05-09T03:20:33.372Z,14.27
2024-05-09T03:23:02.295Z,13.52
2024-05-09T03:25:29.048Z,15.38
2024-05-09T03:27:55.724Z,17.08
2024-05-09T03:30:31.226Z,19.90
2024-05-09T03:33:18.072Z,17.60
2024-05-09T03:35:47.076Z,18.20
2024-05-09T03:38:14.031Z,18.42
2024-05-09T03:40:46.158Z,17.35
2024-05-09T03:43:13.918Z,15.88
2024-05-09T03:45:40.544Z,14.02
2024-05-09T03:48:07.928Z,17.05
2024-05-09T03:50:36.245Z,15.65
2024-05-09T03:53:03.959Z,14.55
2024-05-09T03:55:31.004Z,14.15
2024-05-09T03:57:57.666Z,16.73
2024-05-09T04:00:31.363Z,14.73
2024-05-09T04:03:06.075Z,16.02
2024-05-09T04:05:34.472Z,13.63
2024-05-09T04:08:01.494Z,12.75
2024-05-09T04:10:33.235Z,18.73
2024-05-09T04:13:01.584Z,13.50
2024-05-09T04:15:28.194Z,12.45
2024-05-09T04:17:55.694Z,11.00
2024-05-09T04:20:33.081Z,12.38
2024-05-09T04:23:10.599Z,13.18
2024-05-09T04:25:37.913Z,11.00
2024-05-09T04:28:04.962Z,9.60
2024-05-09T04:30:37.971Z,10.10
2024-05-09T04:33:09.399Z,12.75
2024-05-09T04:35:38.889Z,11.55
2024-05-09T04:38:06.237Z,13.27
2024-05-09T04:40:36.002Z,11.85
2024-05-09T04:43:04.865Z,11.93
2024-05-09T04:45:31.602Z,11.65
2024-05-09T04:47:58.571Z,10.77
2024-05-09T04:50:33.570Z,16.85
2024-05-09T04:53:04.673Z,16.02
2024-05-09T04:55:33.180Z,11.10
2024-05-09T04:57:59.921Z,11.07
2024-05-09T05:00:34.569Z,12.43
2024-05-09T05:03:06.988Z,12.10
2024-05-09T05:05:37.669Z,14.15
2024-05-09T05:08:05.091Z,14.73
2024-05-09T05:10:36.099Z,15.55
2024-05-09T05:13:18.015Z,12.40
2024-05-09T05:15:46.566Z,15.13
2024-05-09T05:18:14.950Z,11.32
2024-05-09T05:20:42.388Z,14.63
2024-05-09T05:23:13.232Z,11.80
2024-05-09T05:25:41.148Z,12.00
2024-05-09T05:28:08.222Z,11.15
2024-05-09T05:30:37.419Z,10.48
2024-05-09T05:33:05.443Z,8.20
2024-05-09T05:35:32.526Z,8.75
2024-05-09T05:37:59.221Z,7.15
2024-05-09T05:40:33.243Z,9.18
2024-05-09T05:43:10.775Z,6.03
2024-05-09T05:45:38.591Z,7.10
2024-05-09T05:48:06.876Z,6.45
2024-05-09T05:50:37.182Z,7.05
2024-05-09T05:53:06.637Z,7.65
2024-05-09T05:55:33.607Z,6.05
2024-05-09T05:58:01.927Z,7.78
2024-05-09T06:00:34.889Z,5.90
2024-05-09T06:03:05.649Z,6.95
2024-05-09T06:05:32.977Z,8.15
2024-05-09T06:07:59.825Z,5.95
2024-05-09T06:10:34.922Z,5.78
2024-05-09T06:13:05.570Z,7.90
2024-05-09T06:15:32.163Z,6.50
2024-05-09T06:17:59.260Z,6.00
2024-05-09T06:20:34.633Z,5.82
2024-05-09T06:23:04.242Z,5.00
2024-05-09T06:25:31.032Z,7.05
2024-05-09T06:27:57.608Z,8.23
2024-05-09T06:30:30.802Z,5.50
2024-05-09T06:33:05.705Z,6.68
2024-05-09T06:35:33.540Z,5.30
2024-05-09T06:38:00.464Z,6.72
2024-05-09T06:40:36.114Z,5.88
2024-05-09T06:43:10.096Z,6.03
2024-05-09T06:45:36.905Z,5.07
2024-05-09T06:48:03.864Z,7.13
2024-05-09T06:50:37.296Z,8.70
2024-05-09T06:53:05.734Z,5.28
2024-05-09T06:55:32.411Z,9.30
2024-05-09T06:57:59.062Z,8.15
2024-05-09T07:00:34.482Z,5.18
2024-05-09T07:03:17.778Z,6.32
2024-05-09T07:05:47.252Z,6.25
2024-05-09T07:08:15.240Z,5.47
2024-05-09T07:10:42.074Z,5.55
2024-05-09T07:13:13.068Z,7.10
2024-05-09T07:15:40.783Z,5.00
2024-05-09T07:18:18.386Z,6.13
2024-05-09T07:20:47.028Z,4.80
2024-05-09T07:23:14.283Z,8.00
2024-05-09T07:25:41.790Z,10.65
2024-05-09T07:28:14.204Z,7.47
2024-05-09T07:30:41.449Z,5.93
2024-05-09T07:33:08.223Z,6.10
2024-05-09T07:35:35.238Z,5.35
2024-05-09T07:38:01.990Z,5.05
2024-05-09T07:40:35.125Z,6.35
2024-05-09T07:43:04.644Z,9.98
2024-05-09T07:45:48.000Z,5.35
2024-05-09T07:53:39.402Z,6.40
2024-05-09T07:56:10.197Z,5.53
2024-05-09T07:58:38.913Z,4.45
2024-05-09T08:01:05.835Z,4.22
2024-05-09T08:03:33.974Z,5.07
2024-05-09T08:06:00.836Z,5.93
2024-05-09T08:08:27.388Z,6.85
2024-05-09T08:10:54.056Z,5.50
2024-05-09T08:13:20.833Z,5.10
2024-05-09T08:15:48.612Z,4.40
2024-05-09T08:18:15.434Z,6.53
2024-05-09T08:20:42.451Z,5.85
2024-05-09T08:23:10.744Z,7.13
2024-05-09T08:25:37.346Z,5.68
2024-05-09T08:28:05.206Z,5.85
2024-05-09T08:30:36.825Z,5.40
2024-05-09T08:33:06.281Z,8.77
2024-05-09T08:35:33.616Z,4.40
2024-05-09T08:38:06.063Z,4.25
2024-05-09T08:40:36.092Z,9.18
2024-05-09T08:43:09.488Z,4.80
2024-05-09T08:45:38.861Z,3.47
2024-05-09T08:48:08.213Z,7.47
2024-05-09T08:50:39.710Z,5.40
2024-05-09T08:53:08.375Z,3.15
2024-05-09T08:55:40.087Z,3.45
2024-05-09T08:58:12.530Z,4.82
2024-05-09T09:00:41.819Z,4.97
2024-05-09T09:03:11.289Z,4.25
2024-05-09T09:05:39.923Z,4.53
2024-05-09T09:08:08.509Z,4.68
2024-05-09T09:10:35.703Z,4.90
2024-05-09T09:13:04.660Z,7.13
2024-05-09T09:15:31.942Z,3.08
2024-05-09T09:18:00.581Z,2.67
2024-05-09T09:20:35.323Z,4.72
2024-05-09T09:23:04.224Z,4.80
2024-05-09T09:25:31.118Z,5.47
2024-05-09T09:27:58.294Z,4.47
2024-05-09T09:30:35.020Z,2.58
2024-05-09T09:33:05.259Z,2.40
2024-05-09T09:35:32.607Z,10.15
2024-05-09T09:38:02.822Z,4.05
2024-05-09T09:40:36.125Z,4.88
2024-05-09T09:43:20.730Z,4.68
2024-05-09T09:45:52.905Z,5.55
2024-05-09T09:48:21.095Z,4.13
2024-05-09T09:50:50.309Z,2.85
2024-05-09T09:53:18.578Z,2.63
2024-05-09T09:55:46.621Z,6.32
2024-05-09T09:58:15.845Z,3.13
2024-05-09T10:00:42.750Z,3.53
2024-05-09T10:03:09.711Z,2.85
2024-05-09T10:05:37.430Z,3.30
2024-05-09T10:08:10.484Z,4.78
2024-05-09T10:10:37.332Z,4.50
2024-05-09T10:13:05.189Z,4.30
2024-05-09T10:15:54.321Z,4.40
2024-05-09T10:18:27.238Z,3.03
2024-05-09T10:20:56.256Z,3.65
2024-05-09T10:23:34.435Z,3.17
2024-05-09T10:26:03.510Z,3.50
2024-05-09T10:28:39.264Z,4.38
2024-05-09T10:31:11.090Z,5.22
2024-05-09T10:33:51.800Z,3.47
2024-05-09T10:36:21.204Z,3.78
2024-05-09T10:38:52.613Z,7.05
2024-05-09T10:41:20.711Z,5.22
2024-05-09T10:43:48.160Z,3.28
2024-05-09T10:46:15.260Z,5.60
2024-05-09T10:48:43.330Z,5.63
2024-05-09T10:51:10.699Z,3.25
2024-05-09T10:53:42.214Z,3.40
2024-05-09T10:56:09.180Z,2.95
2024-05-09T10:58:35.967Z,5.05
2024-05-09T11:01:06.256Z,3.25
2024-05-09T11:03:34.195Z,3.95
2024-05-09T11:06:01.440Z,6.72
2024-05-09T11:08:28.680Z,3.75
2024-05-09T11:10:56.342Z,5.15
2024-05-09T11:13:30.331Z,3.42
2024-05-09T11:15:57.559Z,5.30
2024-05-09T11:18:27.146Z,4.55
2024-05-09T11:20:56.325Z,5.03
2024-05-09T11:23:27.385Z,4.60
2024-05-09T11:25:55.977Z,4.60
2024-05-09T11:28:23.370Z,3.47
2024-05-09T11:30:50.948Z,3.05
2024-05-09T11:33:19.127Z,4.22
2024-05-09T11:35:46.712Z,3.53
2024-05-09T11:38:13.281Z,3.50
2024-05-09T11:40:40.281Z,3.42
2024-05-09T11:43:06.995Z,3.63
2024-05-09T11:45:33.619Z,2.83
2024-05-09T11:48:00.443Z,3.85
2024-05-09T11:50:32.737Z,2.95
2024-05-09T11:53:02.270Z,5.05
2024-05-09T11:55:29.120Z,2.85
2024-05-09T11:57:56.265Z,4.38
2024-05-09T12:00:33.659Z,3.58
2024-05-09T12:03:04.971Z,2.80
2024-05-09T12:05:32.279Z,6.80
2024-05-09T12:07:59.103Z,2.75
2024-05-09T12:10:32.722Z,5.18
2024-05-09T12:13:02.220Z,2.42
2024-05-09T12:15:29.071Z,2.88
2024-05-09T12:17:58.356Z,4.82
2024-05-09T12:20:35.269Z,4.25
2024-05-09T12:23:05.249Z,3.47
2024-05-09T12:25:31.861Z,2.65
2024-05-09T12:27:58.520Z,3.15
2024-05-09T12:30:33.302Z,2.28
2024-05-09T12:33:04.984Z,2.20
2024-05-09T12:35:31.988Z,6.95
2024-05-09T12:37:58.548Z,3.05
2024-05-09T12:40:34.284Z,2.85
2024-05-09T12:43:04.700Z,3.50
2024-05-09T12:45:31.708Z,2.63
2024-05-09T12:47:58.610Z,2.75
2024-05-09T12:50:31.690Z,2.67
2024-05-09T12:53:00.326Z,3.50
2024-05-09T12:55:28.110Z,4.32
2024-05-09T12:57:55.309Z,3.45
2024-05-09T13:00:28.188Z,2.95
2024-05-09T13:03:00.738Z,2.83
2024-05-09T13:05:27.801Z,4.00
2024-05-09T13:07:56.142Z,2.15
2024-05-09T13:10:29.235Z,5.65
2024-05-09T13:12:59.871Z,2.50
2024-05-09T13:15:26.922Z,2.95
2024-05-09T13:17:54.734Z,2.50
2024-05-09T13:20:29.418Z,4.95
2024-05-09T13:23:01.789Z,2.92
2024-05-09T13:25:28.480Z,2.55
2024-05-09T13:27:55.857Z,4.90
2024-05-09T13:30:29.600Z,5.30
2024-05-09T13:33:05.753Z,3.25
2024-05-09T13:35:34.194Z,2.55
2024-05-09T13:38:01.809Z,4.20
2024-05-09T13:40:33.591Z,4.78
2024-05-09T13:43:05.554Z,1.95
2024-05-09T13:45:33.224Z,4.13
2024-05-09T13:48:00.562Z,2.92
2024-05-09T13:50:33.459Z,2.25
2024-05-09T13:53:03.086Z,4.25
2024-05-09T13:55:29.672Z,4.32
2024-05-09T13:57:56.631Z,4.32
2024-05-09T14:00:37.786Z,2.60
2024-05-09T14:03:10.474Z,3.08
2024-05-09T14:05:37.346Z,2.22
2024-05-09T14:08:04.400Z,1.60
2024-05-09T14:10:32.310Z,2.80
2024-05-09T14:13:01.133Z,3.28
2024-05-09T14:15:28.068Z,4.22
2024-05-09T14:17:55.209Z,2.55
2024-05-09T14:22:51.334Z,3.05
2024-05-09T14:25:18.005Z,3.35
2024-05-09T14:27:44.692Z,4.07
2024-05-09T14:30:18.306Z,3.38
2024-05-09T14:32:52.928Z,2.70
2024-05-09T14:35:19.729Z,3.30
2024-05-09T14:37:46.386Z,3.15
2024-05-09T14:40:30.192Z,1.98
2024-05-09T14:43:03.148Z,4.22
2024-05-09T14:45:29.984Z,2.95
2024-05-09T14:47:56.896Z,2.40
2024-05-09T14:50:31.706Z,2.25
2024-05-09T14:53:01.877Z,5.28
2024-05-09T14:55:28.478Z,3.55
2024-05-09T14:57:55.384Z,2.55
2024-05-09T15:00:28.649Z,2.05
2024-05-09T15:02:59.522Z,2.33
2024-05-09T15:05:26.305Z,3.92
2024-05-09T15:07:53.146Z,2.25
2024-05-09T15:10:27.003Z,1.73
2024-05-09T15:13:00.603Z,2.55
2024-05-09T15:15:27.319Z,3.58
2024-05-09T15:17:55.162Z,3.60
2024-05-09T15:20:30.786Z,2.70
2024-05-09T15:23:02.244Z,3.67
2024-05-09T15:25:29.031Z,3.65
2024-05-09T15:27:55.819Z,2.10
2024-05-09T15:32:52.230Z,2.95
2024-05-09T15:35:18.877Z,4.25
2024-05-09T15:37:48.126Z,1.33
2024-05-09T15:40:18.912Z,3.25
2024-05-09T15:42:53.246Z,1.73
2024-05-09T15:45:19.900Z,4.25
2024-05-09T15:47:46.770Z,3.88
2024-05-09T15:50:20.439Z,2.92
2024-05-09T15:52:55.286Z,2.65
2024-05-09T15:55:22.009Z,2.63
2024-05-09T15:57:48.670Z,2.90
2024-05-09T16:00:24.767Z,3.35
2024-05-09T16:02:59.967Z,3.58
2024-05-09T16:05:26.924Z,2.83
2024-05-09T16:07:53.855Z,6.97
2024-05-09T16:10:25.816Z,2.25
2024-05-09T16:12:57.018Z,2.67
2024-05-09T16:15:25.133Z,2.85
2024-05-09T16:17:51.913Z,6.30
2024-05-09T16:20:29.557Z,6.38
2024-05-09T16:23:04.876Z,6.43
2024-05-09T16:25:31.398Z,5.85
2024-05-09T16:27:58.177Z,2.97
2024-05-09T16:30:31.722Z,2.30
2024-05-09T16:33:02.150Z,5.22
2024-05-09T16:35:28.962Z,3.80
2024-05-09T16:37:55.658Z,3.30
2024-05-09T16:40:30.175Z,1.52
2024-05-09T16:43:04.555Z,3.63
2024-05-09T16:45:31.459Z,2.85
2024-05-09T16:47:59.651Z,2.17
2024-05-09T16:50:31.899Z,1.48
2024-05-09T16:53:00.463Z,2.08
2024-05-09T16:55:27.283Z,4.38
2024-05-09T16:57:54.352Z,2.67
2024-05-09T17:00:31.240Z,3.20
2024-05-09T17:03:06.592Z,1.63
2024-05-09T17:05:33.887Z,2.25
2024-05-09T17:08:01.132Z,3.08
2024-05-09T17:10:32.661Z,3.33
2024-05-09T17:13:01.850Z,2.63
2024-05-09T17:15:28.692Z,2.65
2024-05-09T17:17:55.869Z,2.63
2024-05-09T17:20:29.677Z,3.55
2024-05-09T17:23:02.259Z,2.75
2024-05-09T17:25:29.208Z,4.03
2024-05-09T17:27:57.003Z,2.65
2024-05-09T17:30:32.066Z,3.08
2024-05-09T17:33:04.159Z,2.00
2024-05-09T17:35:31.978Z,1.38
2024-05-09T17:37:59.529Z,2.75
2024-05-09T17:40:32.610Z,2.63
2024-05-09T17:43:02.842Z,2.45
2024-05-09T17:45:29.656Z,2.25
2024-05-09T17:47:56.640Z,4.35
2024-05-09T17:50:30.356Z,2.60
2024-05-09T17:53:01.527Z,1.95
2024-05-09T17:55:28.523Z,2.22
2024-05-09T17:57:55.365Z,4.38
2024-05-09T18:00:32.469Z,5.57
2024-05-09T18:03:04.743Z,3.40
2024-05-09T18:05:31.602Z,3.25
2024-05-09T18:07:58.543Z,2.88
2024-05-09T18:10:32.834Z,2.55
2024-05-09T18:13:03.992Z,7.68
2024-05-09T18:15:30.843Z,2.20
2024-05-09T18:17:58.110Z,2.05
2024-05-09T18:20:33.168Z,2.30
2024-05-09T18:25:34.605Z,5.53
2024-05-09T18:28:04.930Z,19.13
2024-05-09T18:30:35.077Z,16.38
2024-05-09T18:33:05.092Z,10.90
2024-05-09T18:35:32.981Z,4.50
2024-05-09T18:37:59.580Z,2.65
2024-05-09T18:40:32.973Z,2.33
2024-05-09T18:43:03.139Z,2.65
2024-05-09T18:45:29.928Z,4.63
2024-05-09T18:47:56.985Z,1.80
2024-05-09T18:50:32.229Z,2.53
2024-05-09T18:53:04.899Z,3.17
2024-05-09T18:55:31.627Z,3.50
2024-05-09T18:57:58.302Z,1.73
2024-05-09T19:00:33.504Z,3.38
2024-05-09T19:03:05.623Z,2.35
2024-05-09T19:05:33.297Z,3.63
2024-05-09T19:08:00.230Z,3.72
2024-05-09T19:10:33.671Z,3.17
2024-05-09T19:13:04.303Z,5.10
2024-05-09T19:15:33.794Z,2.95
2024-05-09T19:18:00.710Z,2.88
2024-05-09T19:20:33.163Z,4.82
2024-05-09T19:23:01.443Z,2.88
2024-05-09T19:25:27.969Z,7.22
2024-05-09T19:27:54.577Z,4.15
2024-05-09T19:30:29.795Z,2.80
2024-05-09T19:35:31.105Z,6.38
2024-05-09T19:37:58.024Z,4.22
2024-05-09T19:40:30.474Z,5.30
2024-05-09T19:42:59.474Z,5.10
2024-05-09T19:45:26.124Z,2.83
2024-05-09T19:47:53.022Z,3.25
2024-05-09T19:50:26.401Z,3.22
2024-05-09T19:52:59.098Z,3.42
2024-05-09T19:55:25.782Z,2.90
2024-05-09T19:57:52.407Z,5.22
2024-05-09T20:00:26.007Z,3.25
2024-05-09T20:02:56.349Z,3.17
2024-05-09T20:05:23.698Z,4.95
2024-05-09T20:07:50.398Z,4.40
2024-05-09T20:10:23.643Z,2.60
2024-05-09T20:12:53.758Z,3.45
2024-05-09T20:15:20.466Z,2.35
2024-05-09T20:17:47.207Z,2.33
2024-05-09T20:20:24.512Z,4.50
2024-05-09T20:22:59.887Z,3.78
2024-05-09T20:25:26.448Z,3.55
2024-05-09T20:27:53.039Z,2.60
2024-05-09T20:30:28.651Z,3.05
2024-05-09T20:32:59.243Z,2.60
2024-05-09T20:35:26.593Z,2.08
2024-05-09T20:37:53.370Z,3.67
2024-05-09T20:40:28.275Z,3.20
2024-05-09T20:42:59.219Z,3.55
2024-05-09T20:45:26.342Z,3.50
2024-05-09T20:47:53.163Z,3.92
2024-05-09T20:50:28.434Z,2.22
2024-05-09T20:53:03.022Z,2.58
2024-05-09T20:55:30.048Z,2.00
2024-05-09T20:57:57.269Z,2.55
2024-05-09T21:00:33.657Z,3.70
2024-05-09T21:03:06.329Z,2.60
2024-05-09T21:05:33.692Z,2.28
2024-05-09T21:08:01.406Z,3.38
2024-05-09T21:10:32.659Z,2.78
2024-05-09T21:13:00.887Z,2.45
2024-05-09T21:15:27.617Z,3.42
2024-05-09T21:17:54.279Z,2.38
2024-05-09T21:20:28.105Z,4.30
2024-05-09T21:22:57.613Z,2.40
2024-05-09T21:25:24.245Z,3.65
2024-05-09T21:27:51.161Z,2.47
2024-05-09T21:30:26.833Z,2.85
2024-05-09T21:32:59.621Z,3.53
2024-05-09T21:35:26.295Z,2.55
2024-05-09T21:37:52.884Z,3.28
2024-05-09T21:40:27.247Z,3.97
2024-05-09T21:43:01.137Z,3.92
2024-05-09T21:45:27.946Z,2.78
2024-05-09T21:47:54.786Z,2.15
2024-05-09T21:50:28.070Z,4.55
2024-05-09T21:52:59.110Z,3.80
2024-05-09T21:55:25.718Z,2.30
2024-05-09T21:57:52.419Z,2.30
2024-05-09T22:00:28.722Z,4.20
2024-05-09T22:03:02.137Z,3.78
2024-05-09T22:05:29.087Z,2.67
2024-05-09T22:07:55.913Z,2.35
2024-05-09T22:10:26.456Z,2.55
2024-05-09T22:12:59.260Z,2.25
2024-05-09T22:15:25.938Z,2.65
2024-05-09T22:17:52.641Z,2.50
2024-05-09T22:20:28.688Z,2.03
2024-05-09T22:23:02.269Z,2.60
2024-05-09T22:25:30.779Z,1.70
2024-05-09T22:27:58.146Z,3.72
2024-05-09T22:30:33.171Z,2.20
2024-05-09T22:33:03.980Z,2.13
2024-05-09T22:35:30.629Z,2.60
2024-05-09T22:37:57.225Z,3.60
2024-05-09T22:40:29.434Z,3.53
2024-05-09T22:43:05.657Z,1.65
2024-05-09T22:45:32.440Z,4.32
2024-05-09T22:47:59.543Z,2.65
2024-05-09T22:50:27.305Z,5.97
2024-05-09T22:52:59.071Z,2.42
2024-05-09T22:55:25.587Z,2.05
2024-05-09T22:57:52.257Z,3.72
2024-05-09T23:00:21.852Z,2.83
2024-05-09T23:02:52.918Z,2.50
2024-05-09T23:05:19.681Z,5.22
2024-05-09T23:07:46.346Z,1.65
2024-05-09T23:10:17.395Z,4.03
2024-05-09T23:12:51.517Z,3.47
2024-05-09T23:15:18.188Z,2.55
2024-05-09T23:17:45.040Z,2.58
2024-05-09T23:20:14.456Z,2.40
2024-05-09T23:22:41.161Z,1.63
2024-05-09T23:25:07.858Z,2.80
2024-05-09T23:27:34.592Z,4.00
2024-05-09T23:30:01.238Z,1.90
2024-05-09T23:32:27.878Z,2.08
2024-05-09T23:34:54.536Z,4.07
2024-05-09T23:37:21.354Z,3.72
2024-05-09T23:39:48.142Z,3.95
2024-05-09T23:42:14.749Z,2.42
2024-05-09T23:44:41.273Z,2.00
2024-05-09T23:47:10.681Z,2.03
2024-05-09T23:49:37.599Z,3.72
2024-05-09T23:52:04.727Z,2.35
2024-05-09T23:54:31.341Z,3.63
2024-05-09T23:56:57.886Z,1.88
2024-05-09T23:59:24.396Z,2.00
